Ilorin International Airport

DNIL · Kwara, Nigeria

Storia di METAR DNIL · Ilorin International Airport

Di seguito sono riportati i METAR degli ultimi giorni. Seleziona un anno per sfogliare i METAR più vecchi, dall'anno 2007 in poi.

2 dicembre 2022

Tempo Codice Tempo metereologico Temp. Vista Base nuvolosa Vento METAR/SPECI
20:00
V
29 °C 10 km+ - 050° 050° 3 kt METAR DNIL 021900Z 05003KT CAVOK 29/18 Q1008
18:00
V
32 °C 10 km+ - 030° 030° 3 kt METAR DNIL 021700Z 03003KT CAVOK 32/16 Q1007
17:00
V
33 °C 10 km+ - 020° 020° 6 kt METAR DNIL 021600Z 02006KT CAVOK 33/16 Q1006
15:00
V
34 °C 10 km+ - 320° 320° 5 kt METAR DNIL 021400Z 32005KT CAVOK 34/17 Q1007
14:00
V
34 °C 10 km+ - 360° 360° 5 kt METAR DNIL 021300Z 36005KT CAVOK 34/16 Q1008
12:00
V
32 °C 10 km+ - Var 000° 0 kt METAR DNIL 021100Z 00000KT CAVOK 32/18 Q1010
11:00
V
29 °C 10 km+ - Var 000° 0 kt METAR DNIL 021000Z 00000KT CAVOK 29/22 Q1011
09:00
V
25 °C 10 km+ - 230° 230° 3 kt METAR DNIL 020800Z 23003KT 9999 FEW010 25/23 Q1012
08:00
M
24 °C 10 km+ 1.000 ft Var 000° 0 kt METAR DNIL 020700Z 00000KT 9999 BKN010 24/23 Q1011
07:00
M
24 °C 10 km+ 1.000 ft Var 000° 0 kt METAR DNIL 020600Z 00000KT 9999 BKN010 24/23 Q1011
05:00
V
24 °C 10 km+ - 200° 200° 5 kt METAR DNIL 020400Z 20005KT 9999 SCT010 24/23 Q1011

1 dicembre 2022

Tempo Codice Tempo metereologico Temp. Vista Base nuvolosa Vento METAR/SPECI
23:00
V
28 °C 10 km+ - 190° 190° 4 kt METAR DNIL 012200Z 19004KT CAVOK 28/20 Q1012
21:00
V
30 °C 10 km+ - Var 000° 0 kt METAR DNIL 012000Z 00000KT 9999 FEW010 30/17 Q1011
20:00
V
31 °C 10 km+ - Var 000° 0 kt METAR DNIL 011900Z 00000KT 9999 FEW011 31/20 Q1010
19:00
V
31 °C 10 km+ - Var 000° 0 kt METAR DNIL 011800Z 00000KT 9999 FEW011 31/20 Q1009
18:00
V
33 °C 10 km+ - Var 000° 0 kt METAR DNIL 011700Z 00000KT 9999 FEW014 33/18 Q1008
17:00
V
34 °C 10 km+ - 130° 130° 5 kt METAR DNIL 011600Z 13005KT 9999 FEW014 34/18 Q1007
15:00
V
35 °C 10 km+ - 180° 180° 4 kt METAR DNIL 011400Z 18004KT 9999 SCT014 35/19 Q1008
14:00
V
34 °C 10 km+ - 110° 110° 4 kt METAR DNIL 011300Z 11004KT 9999 SCT014 34/18 Q1009
13:00
V
33 °C 10 km+ - 080° 080° 4 kt METAR DNIL 011200Z 08004KT 9999 SCT013 33/19 Q1010
12:00
V
31 °C 10 km+ - 350° 350° 4 kt METAR DNIL 011100Z 35004KT 9999 FEW011 31/21 Q1011
11:00
V
29 °C 10 km+ - Var 000° 0 kt METAR DNIL 011000Z 00000KT CAVOK 29/22 Q1011
09:00
I
24 °C 3 km - Var 000° 0 kt METAR DNIL 010800Z 00000KT 3000 BR NSC 24/22 Q1012
08:00
I
23 °C 3 km - Var 000° 0 kt METAR DNIL 010700Z 000000KT 3000 BR NSC 23/22 Q1011
06:00
V
23 °C 10 km+ - Var 000° 0 kt METAR DNIL 010500Z 00000KT 9999 FEW010 23/20 Q1009
05:00
V
23 °C 10 km+ - Var 000° 0 kt METAR DNIL 010400Z 00000KT 9999 SCT010 23/20 Q1009
03:00
V
23 °C 10 km+ - 020° 020° 5 kt METAR DNIL 010200Z 02005KT 9999 FEW010 23/20 Q1009
02:00
V
24 °C 10 km+ - 230° 230° 5 kt METAR DNIL 010100Z 23005KT 9999 FEW011 24/20 Q1010
01:00
V
25 °C 10 km+ - Var 000° 0 kt METAR DNIL 010000Z 00000KT CAVOK 25/17 Q1011
00:00
V
25 °C 10 km+ - 140° 140° 5 kt METAR DNIL 302300Z 14005KT CAVOK 25/17 Q1011

30 novembre 2022

Tempo Codice Tempo metereologico Temp. Vista Base nuvolosa Vento METAR/SPECI
23:00
V
27 °C 10 km+ - 140° 140° 4 kt METAR DNIL 302200Z 14004KT CAVOK 27/15 Q1011
21:00
V
28 °C 10 km+ - Var 000° 0 kt METAR DNIL 302000Z 00000KT CAVOK 28/14 Q1011
20:00
V
29 °C 10 km+ - 020° 020° 7 kt METAR DNIL 301900Z 02007KT CAVOK 29/14 Q1010
18:00
V
30 °C 10 km+ - 030° 030° 3 kt METAR DNIL 301700Z 03003KT 9999 FEW012 30/12 Q1007
17:00
V
34 °C 10 km+ - 300° 300° 4 kt METAR DNIL 301600Z 30004KT 9999 FEW013 34/16 Q1007
15:00
V
34 °C 10 km+ - 080° 080° 4 kt METAR DNIL 301400Z 08004KT 9999 FEW013 34/16 Q1007
14:00
V
34 °C 10 km+ - 050° 050° 5 kt METAR DNIL 301300Z 05005KT 9999 FEW013 34/11 Q1008
12:00
V
31 °C 10 km+ - 060° 060° 3 kt METAR DNIL 301100Z 06003KT CAVOK 31/16 Q1010
11:00
V
28 °C 10 km+ - 200° 200° 3 kt METAR DNIL 301000Z 20003KT 9999 FEW011 28/23 Q1011

Noi e le terze parti seguiamo il tuo comportamento su internet con i cookie. Se continui, riteniamo che tu sia d'accordo con la nostra Politica sui cookie.